sensor_id;sensor_type;location;lat;lon;timestamp;pressure;altitude;pressure_sealevel;temperature;humidity
38267;BME280;24063;51.794;19.578;2023-02-13T00:00:18;100248.41;;;2.73;100.00
38267;BME280;24063;51.794;19.578;2023-02-13T00:01:39;100247.86;;;2.75;100.00
38267;BME280;24063;51.794;19.578;2023-02-13T00:02:40;100252.89;;;2.76;100.00
38267;BME280;24063;51.794;19.578;2023-02-13T00:03:40;100249.41;;;2.77;100.00
38267;BME280;24063;51.794;19.578;2023-02-13T00:04:41;100251.81;;;2.77;100.00
38267;BME280;24063;51.794;19.578;2023-02-13T00:05:45;100251.07;;;2.78;100.00
38267;BME280;24063;51.794;19.578;2023-02-13T00:06:50;100247.48;;;2.79;100.00
38267;BME280;24063;51.794;19.578;2023-02-13T00:07:51;100247.96;;;2.81;100.00
38267;BME280;24063;51.794;19.578;2023-02-13T00:08:52;100251.11;;;2.80;100.00
38267;BME280;24063;51.794;19.578;2023-02-13T00:09:52;100249.97;;;2.81;100.00
38267;BME280;24063;51.794;19.578;2023-02-13T00:10:53;100252.25;;;2.80;100.00
38267;BME280;24063;51.794;19.578;2023-02-13T00:11:53;100251.35;;;2.80;100.00
38267;BME280;24063;51.794;19.578;2023-02-13T00:12:54;100246.41;;;2.79;100.00
38267;BME280;24063;51.794;19.578;2023-02-13T00:13:54;100249.41;;;2.80;100.00
38267;BME280;24063;51.794;19.578;2023-02-13T00:14:55;100249.61;;;2.79;100.00
38267;BME280;24063;51.794;19.578;2023-02-13T00:15:58;100251.21;;;2.79;100.00
38267;BME280;24063;51.794;19.578;2023-02-13T00:16:59;100250.08;;;2.80;100.00
38267;BME280;24063;51.794;19.578;2023-02-13T00:18:01;100250.04;;;2.80;100.00
38267;BME280;24063;51.794;19.578;2023-02-13T00:19:01;100254.04;;;2.81;100.00
38267;BME280;24063;51.794;19.578;2023-02-13T00:20:03;100249.07;;;2.81;100.00
38267;BME280;24063;51.794;19.578;2023-02-13T00:21:11;100250.58;;;2.80;100.00
38267;BME280;24063;51.794;19.578;2023-02-13T00:22:12;100248.39;;;2.79;100.00
38267;BME280;24063;51.794;19.578;2023-02-13T00:23:13;100249.29;;;2.79;100.00
38267;BME280;24063;51.794;19.578;2023-02-13T00:24:13;100244.23;;;2.80;100.00
38267;BME280;24063;51.794;19.578;2023-02-13T00:25:14;100249.81;;;2.81;100.00
38267;BME280;24063;51.794;19.578;2023-02-13T00:26:16;100243.48;;;2.81;100.00
38267;BME280;24063;51.794;19.578;2023-02-13T00:27:17;100247.60;;;2.83;100.00
38267;BME280;24063;51.794;19.578;2023-02-13T00:28:18;100246.66;;;2.85;100.00
38267;BME280;24063;51.794;19.578;2023-02-13T00:29:19;100243.21;;;2.86;100.00
38267;BME280;24063;51.794;19.578;2023-02-13T00:30:19;100243.19;;;2.87;100.00
38267;BME280;24063;51.794;19.578;2023-02-13T00:31:21;100241.98;;;2.88;100.00
38267;BME280;24063;51.794;19.578;2023-02-13T00:32:22;100237.93;;;2.89;100.00
38267;BME280;24063;51.794;19.578;2023-02-13T00:33:22;100235.42;;;2.90;100.00
38267;BME280;24063;51.794;19.578;2023-02-13T00:34:23;100237.86;;;2.90;100.00
38267;BME280;24063;51.794;19.578;2023-02-13T00:35:23;100235.11;;;2.91;100.00
38267;BME280;24063;51.794;19.578;2023-02-13T00:36:26;100230.04;;;2.90;100.00
38267;BME280;24063;51.794;19.578;2023-02-13T00:37:26;100230.23;;;2.90;100.00
38267;BME280;24063;51.794;19.578;2023-02-13T00:38:29;100233.69;;;2.89;100.00
38267;BME280;24063;51.794;19.578;2023-02-13T00:39:29;100232.79;;;2.89;100.00
38267;BME280;24063;51.794;19.578;2023-02-13T00:40:30;100230.66;;;2.88;100.00
38267;BME280;24063;51.794;19.578;2023-02-13T00:41:30;100226.84;;;2.87;100.00
38267;BME280;24063;51.794;19.578;2023-02-13T00:42:31;100223.55;;;2.88;100.00
38267;BME280;24063;51.794;19.578;2023-02-13T00:43:32;100220.19;;;2.87;100.00
38267;BME280;24063;51.794;19.578;2023-02-13T00:44:32;100215.52;;;2.88;100.00
38267;BME280;24063;51.794;19.578;2023-02-13T00:45:34;100213.29;;;2.88;100.00
38267;BME280;24063;51.794;19.578;2023-02-13T00:46:36;100215.71;;;2.88;100.00
38267;BME280;24063;51.794;19.578;2023-02-13T00:47:38;100216.98;;;2.88;100.00
38267;BME280;24063;51.794;19.578;2023-02-13T00:48:39;100210.78;;;2.87;100.00
38267;BME280;24063;51.794;19.578;2023-02-13T00:49:39;100215.50;;;2.87;100.00
38267;BME280;24063;51.794;19.578;2023-02-13T00:50:40;100215.93;;;2.86;100.00
38267;BME280;24063;51.794;19.578;2023-02-13T00:51:42;100217.61;;;2.85;100.00
38267;BME280;24063;51.794;19.578;2023-02-13T00:52:43;100215.48;;;2.85;100.00
38267;BME280;24063;51.794;19.578;2023-02-13T00:53:45;100215.08;;;2.86;100.00
38267;BME280;24063;51.794;19.578;2023-02-13T00:54:48;100210.83;;;2.85;100.00
38267;BME280;24063;51.794;19.578;2023-02-13T00:55:49;100210.42;;;2.86;100.00
38267;BME280;24063;51.794;19.578;2023-02-13T00:56:50;100212.13;;;2.87;100.00
38267;BME280;24063;51.794;19.578;2023-02-13T00:57:50;100207.50;;;2.88;100.00
38267;BME280;24063;51.794;19.578;2023-02-13T00:58:51;100210.86;;;2.88;100.00
38267;BME280;24063;51.794;19.578;2023-02-13T00:59:51;100208.91;;;2.89;100.00
38267;BME280;24063;51.794;19.578;2023-02-13T01:00:53;100211.02;;;2.90;100.00
38267;BME280;24063;51.794;19.578;2023-02-13T01:01:55;100203.36;;;2.88;100.00
38267;BME280;24063;51.794;19.578;2023-02-13T01:02:56;100206.71;;;2.87;100.00
38267;BME280;24063;51.794;19.578;2023-02-13T01:03:56;100207.66;;;2.85;100.00
38267;BME280;24063;51.794;19.578;2023-02-13T01:04:57;100208.48;;;2.84;100.00
38267;BME280;24063;51.794;19.578;2023-02-13T01:05:58;100210.52;;;2.83;100.00
38267;BME280;24063;51.794;19.578;2023-02-13T01:06:58;100214.16;;;2.82;100.00
38267;BME280;24063;51.794;19.578;2023-02-13T01:07:59;100210.08;;;2.81;100.00
38267;BME280;24063;51.794;19.578;2023-02-13T01:09:02;100205.48;;;2.81;100.00
38267;BME280;24063;51.794;19.578;2023-02-13T01:10:02;100203.33;;;2.79;100.00
38267;BME280;24063;51.794;19.578;2023-02-13T01:11:03;100208.85;;;2.81;100.00
38267;BME280;24063;51.794;19.578;2023-02-13T01:12:04;100208.65;;;2.81;100.00
38267;BME280;24063;51.794;19.578;2023-02-13T01:13:05;100204.63;;;2.82;100.00
38267;BME280;24063;51.794;19.578;2023-02-13T01:14:06;100202.84;;;2.80;100.00
38267;BME280;24063;51.794;19.578;2023-02-13T01:15:07;100198.48;;;2.80;100.00
38267;BME280;24063;51.794;19.578;2023-02-13T01:16:07;100198.58;;;2.79;100.00
38267;BME280;24063;51.794;19.578;2023-02-13T01:17:08;100199.23;;;2.78;100.00
38267;BME280;24063;51.794;19.578;2023-02-13T01:18:13;100199.75;;;2.77;100.00
38267;BME280;24063;51.794;19.578;2023-02-13T01:19:14;100201.53;;;2.75;100.00
38267;BME280;24063;51.794;19.578;2023-02-13T01:20:14;100202.27;;;2.75;100.00
38267;BME280;24063;51.794;19.578;2023-02-13T01:21:18;100197.30;;;2.75;100.00
38267;BME280;24063;51.794;19.578;2023-02-13T01:22:20;100194.16;;;2.76;100.00
38267;BME280;24063;51.794;19.578;2023-02-13T01:23:22;100194.31;;;2.76;100.00
38267;BME280;24063;51.794;19.578;2023-02-13T01:24:25;100193.12;;;2.75;100.00
38267;BME280;24063;51.794;19.578;2023-02-13T01:25:29;100194.20;;;2.77;100.00
38267;BME280;24063;51.794;19.578;2023-02-13T01:26:31;100196.38;;;2.77;100.00
38267;BME280;24063;51.794;19.578;2023-02-13T01:27:31;100199.18;;;2.77;100.00
38267;BME280;24063;51.794;19.578;2023-02-13T01:28:32;100196.23;;;2.78;100.00
38267;BME280;24063;51.794;19.578;2023-02-13T01:29:34;100198.00;;;2.78;100.00
38267;BME280;24063;51.794;19.578;2023-02-13T01:30:35;100195.08;;;2.77;100.00
38267;BME280;24063;51.794;19.578;2023-02-13T01:31:36;100197.58;;;2.77;100.00
38267;BME280;24063;51.794;19.578;2023-02-13T01:32:37;100201.83;;;2.77;100.00
38267;BME280;24063;51.794;19.578;2023-02-13T01:33:38;100204.11;;;2.77;100.00
38267;BME280;24063;51.794;19.578;2023-02-13T01:34:39;100201.35;;;2.77;100.00
38267;BME280;24063;51.794;19.578;2023-02-13T01:35:40;100202.59;;;2.77;100.00
38267;BME280;24063;51.794;19.578;2023-02-13T01:36:42;100195.19;;;2.76;100.00
38267;BME280;24063;51.794;19.578;2023-02-13T01:37:43;100198.81;;;2.77;100.00
38267;BME280;24063;51.794;19.578;2023-02-13T01:38:43;100193.93;;;2.78;100.00
38267;BME280;24063;51.794;19.578;2023-02-13T01:39:44;100193.86;;;2.78;100.00
38267;BME280;24063;51.794;19.578;2023-02-13T01:40:47;100192.70;;;2.78;100.00
38267;BME280;24063;51.794;19.578;2023-02-13T01:41:48;100191.56;;;2.78;100.00
38267;BME280;24063;51.794;19.578;2023-02-13T01:42:49;100193.07;;;2.77;100.00
38267;BME280;24063;51.794;19.578;2023-02-13T01:43:58;100189.36;;;2.77;100.00
38267;BME280;24063;51.794;19.578;2023-02-13T01:45:04;100187.41;;;2.76;100.00
38267;BME280;24063;51.794;19.578;2023-02-13T01:46:05;100190.79;;;2.76;100.00
38267;BME280;24063;51.794;19.578;2023-02-13T01:47:08;100186.27;;;2.76;100.00
38267;BME280;24063;51.794;19.578;2023-02-13T01:48:18;100191.00;;;2.77;100.00
38267;BME280;24063;51.794;19.578;2023-02-13T01:49:24;100186.13;;;2.77;100.00
38267;BME280;24063;51.794;19.578;2023-02-13T01:50:46;100189.88;;;2.79;100.00
38267;BME280;24063;51.794;19.578;2023-02-13T01:51:53;100184.13;;;2.79;100.00
38267;BME280;24063;51.794;19.578;2023-02-13T01:53:06;100184.08;;;2.81;100.00
38267;BME280;24063;51.794;19.578;2023-02-13T01:54:14;100186.43;;;2.82;100.00
38267;BME280;24063;51.794;19.578;2023-02-13T01:55:18;100187.16;;;2.82;100.00
38267;BME280;24063;51.794;19.578;2023-02-13T01:56:44;100185.08;;;2.82;100.00
38267;BME280;24063;51.794;19.578;2023-02-13T01:57:52;100186.28;;;2.80;100.00
38267;BME280;24063;51.794;19.578;2023-02-13T01:59:00;100182.23;;;2.79;100.00
38267;BME280;24063;51.794;19.578;2023-02-13T02:00:07;100183.64;;;2.79;100.00
38267;BME280;24063;51.794;19.578;2023-02-13T02:01:18;100182.19;;;2.78;100.00
38267;BME280;24063;51.794;19.578;2023-02-13T02:02:21;100185.27;;;2.79;100.00
38267;BME280;24063;51.794;19.578;2023-02-13T02:03:29;100182.86;;;2.78;100.00
38267;BME280;24063;51.794;19.578;2023-02-13T02:04:36;100182.91;;;2.79;100.00
38267;BME280;24063;51.794;19.578;2023-02-13T02:05:43;100183.98;;;2.80;100.00
38267;BME280;24063;51.794;19.578;2023-02-13T02:07:02;100183.77;;;2.82;100.00
38267;BME280;24063;51.794;19.578;2023-02-13T02:08:09;100187.48;;;2.84;100.00
38267;BME280;24063;51.794;19.578;2023-02-13T02:09:17;100184.90;;;2.85;100.00
38267;BME280;24063;51.794;19.578;2023-02-13T02:10:20;100185.40;;;2.85;100.00
38267;BME280;24063;51.794;19.578;2023-02-13T02:13:25;100187.56;;;2.85;100.00
38267;BME280;24063;51.794;19.578;2023-02-13T02:14:07;100184.71;;;2.85;100.00
38267;BME280;24063;51.794;19.578;2023-02-13T02:15:08;100183.18;;;2.86;100.00
38267;BME280;24063;51.794;19.578;2023-02-13T02:16:10;100181.88;;;2.86;100.00
38267;BME280;24063;51.794;19.578;2023-02-13T02:17:11;100181.02;;;2.87;100.00
38267;BME280;24063;51.794;19.578;2023-02-13T02:18:23;100181.69;;;2.87;100.00
38267;BME280;24063;51.794;19.578;2023-02-13T02:20:04;100182.21;;;2.86;100.00
38267;BME280;24063;51.794;19.578;2023-02-13T02:22:30;100190.33;;;2.88;100.00
38267;BME280;24063;51.794;19.578;2023-02-13T02:25:28;100190.46;;;2.89;100.00
38267;BME280;24063;51.794;19.578;2023-02-13T02:27:55;100191.50;;;2.86;100.00
38267;BME280;24063;51.794;19.578;2023-02-13T02:30:46;100191.41;;;2.86;100.00
38267;BME280;24063;51.794;19.578;2023-02-13T02:32:21;100197.05;;;2.86;100.00
38267;BME280;24063;51.794;19.578;2023-02-13T02:33:46;100197.05;;;2.86;100.00
38267;BME280;24063;51.794;19.578;2023-02-13T02:35:16;100196.95;;;2.85;100.00
38267;BME280;24063;51.794;19.578;2023-02-13T02:41:06;100196.29;;;2.79;100.00
38267;BME280;24063;51.794;19.578;2023-02-13T02:43:31;100193.90;;;2.78;100.00
38267;BME280;24063;51.794;19.578;2023-02-13T02:45:07;100192.66;;;2.78;100.00
38267;BME280;24063;51.794;19.578;2023-02-13T02:46:15;100194.76;;;2.78;100.00
38267;BME280;24063;51.794;19.578;2023-02-13T02:49:03;100193.89;;;2.81;100.00
38267;BME280;24063;51.794;19.578;2023-02-13T02:50:33;100192.34;;;2.82;100.00
38267;BME280;24063;51.794;19.578;2023-02-13T02:54:39;100200.81;;;2.82;100.00
38267;BME280;24063;51.794;19.578;2023-02-13T02:56:11;100199.20;;;2.82;100.00
38267;BME280;24063;51.794;19.578;2023-02-13T02:57:26;100197.16;;;2.83;100.00
38267;BME280;24063;51.794;19.578;2023-02-13T02:59:00;100196.14;;;2.83;100.00
38267;BME280;24063;51.794;19.578;2023-02-13T03:00:24;100197.68;;;2.82;100.00
38267;BME280;24063;51.794;19.578;2023-02-13T03:01:45;100199.12;;;2.82;100.00
38267;BME280;24063;51.794;19.578;2023-02-13T03:03:21;100202.33;;;2.82;100.00
38267;BME280;24063;51.794;19.578;2023-02-13T03:04:45;100204.30;;;2.82;100.00
38267;BME280;24063;51.794;19.578;2023-02-13T03:07:24;100207.01;;;2.81;100.00
38267;BME280;24063;51.794;19.578;2023-02-13T03:08:27;100203.80;;;2.81;100.00
38267;BME280;24063;51.794;19.578;2023-02-13T03:09:52;100207.58;;;2.81;100.00
38267;BME280;24063;51.794;19.578;2023-02-13T03:11:12;100209.14;;;2.81;100.00
38267;BME280;24063;51.794;19.578;2023-02-13T03:12:39;100210.80;;;2.82;100.00
38267;BME280;24063;51.794;19.578;2023-02-13T03:14:03;100211.65;;;2.83;100.00
38267;BME280;24063;51.794;19.578;2023-02-13T03:15:06;100212.78;;;2.83;100.00
38267;BME280;24063;51.794;19.578;2023-02-13T03:16:14;100211.02;;;2.84;100.00
38267;BME280;24063;51.794;19.578;2023-02-13T03:17:36;100214.54;;;2.86;100.00
38267;BME280;24063;51.794;19.578;2023-02-13T03:18:57;100216.10;;;2.86;100.00
38267;BME280;24063;51.794;19.578;2023-02-13T03:20:48;100217.01;;;2.86;100.00
38267;BME280;24063;51.794;19.578;2023-02-13T03:25:14;100214.16;;;2.86;100.00
38267;BME280;24063;51.794;19.578;2023-02-13T03:28:18;100216.70;;;2.85;100.00
38267;BME280;24063;51.794;19.578;2023-02-13T03:30:23;100215.48;;;2.85;100.00
38267;BME280;24063;51.794;19.578;2023-02-13T03:31:48;100212.11;;;2.86;100.00
38267;BME280;24063;51.794;19.578;2023-02-13T03:34:31;100214.46;;;2.86;100.00
38267;BME280;24063;51.794;19.578;2023-02-13T03:37:46;100210.80;;;2.86;100.00
38267;BME280;24063;51.794;19.578;2023-02-13T03:39:10;100212.23;;;2.85;100.00
38267;BME280;24063;51.794;19.578;2023-02-13T03:40:15;100214.17;;;2.86;100.00
38267;BME280;24063;51.794;19.578;2023-02-13T03:41:26;100213.47;;;2.86;100.00
38267;BME280;24063;51.794;19.578;2023-02-13T03:42:36;100211.80;;;2.88;100.00
38267;BME280;24063;51.794;19.578;2023-02-13T03:45:41;100210.08;;;2.90;100.00
38267;BME280;24063;51.794;19.578;2023-02-13T03:46:57;100210.69;;;2.89;100.00
38267;BME280;24063;51.794;19.578;2023-02-13T03:48:03;100211.55;;;2.88;100.00
38267;BME280;24063;51.794;19.578;2023-02-13T03:49:16;100210.73;;;2.88;100.00
38267;BME280;24063;51.794;19.578;2023-02-13T03:50:42;100212.27;;;2.87;100.00
38267;BME280;24063;51.794;19.578;2023-02-13T03:51:52;100209.09;;;2.87;100.00
38267;BME280;24063;51.794;19.578;2023-02-13T03:53:08;100210.98;;;2.87;100.00
38267;BME280;24063;51.794;19.578;2023-02-13T03:55:06;100213.64;;;2.87;100.00
38267;BME280;24063;51.794;19.578;2023-02-13T03:56:02;100213.40;;;2.88;100.00
38267;BME280;24063;51.794;19.578;2023-02-13T03:57:24;100213.09;;;2.89;100.00
38267;BME280;24063;51.794;19.578;2023-02-13T03:58:50;100216.26;;;2.89;100.00
38267;BME280;24063;51.794;19.578;2023-02-13T04:00:14;100211.37;;;2.88;100.00
38267;BME280;24063;51.794;19.578;2023-02-13T04:01:20;100209.51;;;2.88;100.00
38267;BME280;24063;51.794;19.578;2023-02-13T04:02:30;100211.39;;;2.87;100.00
38267;BME280;24063;51.794;19.578;2023-02-13T04:03:54;100212.03;;;2.86;100.00
38267;BME280;24063;51.794;19.578;2023-02-13T04:06:22;100209.20;;;2.86;100.00
38267;BME280;24063;51.794;19.578;2023-02-13T04:07:25;100204.75;;;2.85;100.00
38267;BME280;24063;51.794;19.578;2023-02-13T04:08:30;100207.09;;;2.85;100.00
38267;BME280;24063;51.794;19.578;2023-02-13T04:09:36;100202.92;;;2.84;100.00
38267;BME280;24063;51.794;19.578;2023-02-13T04:10:59;100201.53;;;2.84;100.00
38267;BME280;24063;51.794;19.578;2023-02-13T04:12:21;100202.55;;;2.84;100.00
38267;BME280;24063;51.794;19.578;2023-02-13T04:13:34;100200.17;;;2.83;100.00
38267;BME280;24063;51.794;19.578;2023-02-13T04:14:42;100196.98;;;2.83;100.00
38267;BME280;24063;51.794;19.578;2023-02-13T04:15:52;100199.32;;;2.82;100.00
38267;BME280;24063;51.794;19.578;2023-02-13T04:17:06;100201.05;;;2.81;100.00
38267;BME280;24063;51.794;19.578;2023-02-13T04:18:28;100196.13;;;2.79;100.00
38267;BME280;24063;51.794;19.578;2023-02-13T04:19:31;100202.52;;;2.80;100.00
38267;BME280;24063;51.794;19.578;2023-02-13T04:20:32;100203.79;;;2.80;100.00
38267;BME280;24063;51.794;19.578;2023-02-13T04:21:38;100205.88;;;2.80;100.00
38267;BME280;24063;51.794;19.578;2023-02-13T04:22:46;100205.48;;;2.79;100.00
38267;BME280;24063;51.794;19.578;2023-02-13T04:23:47;100206.56;;;2.79;100.00
38267;BME280;24063;51.794;19.578;2023-02-13T04:24:48;100205.15;;;2.79;100.00
38267;BME280;24063;51.794;19.578;2023-02-13T04:25:52;100200.85;;;2.79;100.00
38267;BME280;24063;51.794;19.578;2023-02-13T04:26:54;100202.70;;;2.79;100.00
38267;BME280;24063;51.794;19.578;2023-02-13T04:27:55;100200.59;;;2.78;100.00
38267;BME280;24063;51.794;19.578;2023-02-13T04:28:56;100198.45;;;2.79;100.00
38267;BME280;24063;51.794;19.578;2023-02-13T04:29:56;100203.29;;;2.77;100.00
38267;BME280;24063;51.794;19.578;2023-02-13T04:30:57;100204.70;;;2.75;100.00
38267;BME280;24063;51.794;19.578;2023-02-13T04:31:58;100205.38;;;2.74;100.00
38267;BME280;24063;51.794;19.578;2023-02-13T04:32:58;100202.34;;;2.73;100.00
38267;BME280;24063;51.794;19.578;2023-02-13T04:33:59;100208.81;;;2.72;100.00
38267;BME280;24063;51.794;19.578;2023-02-13T04:35:00;100211.55;;;2.72;100.00
38267;BME280;24063;51.794;19.578;2023-02-13T04:36:00;100210.36;;;2.72;100.00
38267;BME280;24063;51.794;19.578;2023-02-13T04:37:01;100212.02;;;2.73;100.00
38267;BME280;24063;51.794;19.578;2023-02-13T04:38:02;100211.65;;;2.74;100.00
38267;BME280;24063;51.794;19.578;2023-02-13T04:39:03;100210.31;;;2.75;100.00
38267;BME280;24063;51.794;19.578;2023-02-13T04:40:04;100210.44;;;2.75;100.00
38267;BME280;24063;51.794;19.578;2023-02-13T04:41:04;100208.64;;;2.75;100.00
38267;BME280;24063;51.794;19.578;2023-02-13T04:42:05;100208.02;;;2.75;100.00
38267;BME280;24063;51.794;19.578;2023-02-13T04:43:06;100205.66;;;2.74;100.00
38267;BME280;24063;51.794;19.578;2023-02-13T04:44:06;100207.39;;;2.74;100.00
38267;BME280;24063;51.794;19.578;2023-02-13T04:45:07;100209.15;;;2.74;100.00
38267;BME280;24063;51.794;19.578;2023-02-13T04:46:08;100208.77;;;2.73;100.00
38267;BME280;24063;51.794;19.578;2023-02-13T04:47:09;100212.61;;;2.74;100.00
38267;BME280;24063;51.794;19.578;2023-02-13T04:48:10;100211.90;;;2.73;100.00
38267;BME280;24063;51.794;19.578;2023-02-13T04:49:11;100215.20;;;2.74;100.00
38267;BME280;24063;51.794;19.578;2023-02-13T04:50:11;100214.83;;;2.76;100.00
38267;BME280;24063;51.794;19.578;2023-02-13T04:51:12;100214.25;;;2.75;100.00
38267;BME280;24063;51.794;19.578;2023-02-13T04:52:12;100216.91;;;2.74;100.00
38267;BME280;24063;51.794;19.578;2023-02-13T04:53:14;100217.83;;;2.75;100.00
38267;BME280;24063;51.794;19.578;2023-02-13T04:54:15;100217.30;;;2.74;100.00
38267;BME280;24063;51.794;19.578;2023-02-13T04:55:15;100216.06;;;2.74;100.00
38267;BME280;24063;51.794;19.578;2023-02-13T04:56:16;100216.30;;;2.74;100.00
38267;BME280;24063;51.794;19.578;2023-02-13T04:57:19;100217.19;;;2.72;100.00
38267;BME280;24063;51.794;19.578;2023-02-13T04:58:20;100216.95;;;2.73;100.00
38267;BME280;24063;51.794;19.578;2023-02-13T04:59:20;100219.82;;;2.73;100.00
38267;BME280;24063;51.794;19.578;2023-02-13T05:00:23;100218.20;;;2.71;100.00
38267;BME280;24063;51.794;19.578;2023-02-13T05:01:24;100217.50;;;2.71;100.00
38267;BME280;24063;51.794;19.578;2023-02-13T05:02:24;100214.50;;;2.71;100.00
38267;BME280;24063;51.794;19.578;2023-02-13T05:03:25;100220.55;;;2.73;100.00
38267;BME280;24063;51.794;19.578;2023-02-13T05:04:26;100222.70;;;2.72;100.00
38267;BME280;24063;51.794;19.578;2023-02-13T05:05:28;100220.73;;;2.71;100.00
38267;BME280;24063;51.794;19.578;2023-02-13T05:06:28;100217.57;;;2.71;100.00
38267;BME280;24063;51.794;19.578;2023-02-13T05:07:31;100223.65;;;2.70;100.00
38267;BME280;24063;51.794;19.578;2023-02-13T05:08:32;100225.45;;;2.70;100.00
38267;BME280;24063;51.794;19.578;2023-02-13T05:09:33;100224.13;;;2.69;100.00
38267;BME280;24063;51.794;19.578;2023-02-13T05:10:34;100222.89;;;2.70;100.00
38267;BME280;24063;51.794;19.578;2023-02-13T05:11:34;100222.44;;;2.69;100.00
38267;BME280;24063;51.794;19.578;2023-02-13T05:12:35;100223.17;;;2.69;100.00
38267;BME280;24063;51.794;19.578;2023-02-13T05:13:35;100225.39;;;2.68;100.00
38267;BME280;24063;51.794;19.578;2023-02-13T05:14:36;100223.64;;;2.67;100.00
38267;BME280;24063;51.794;19.578;2023-02-13T05:15:36;100225.70;;;2.67;100.00
38267;BME280;24063;51.794;19.578;2023-02-13T05:16:37;100228.33;;;2.67;100.00
38267;BME280;24063;51.794;19.578;2023-02-13T05:17:38;100229.06;;;2.67;100.00
38267;BME280;24063;51.794;19.578;2023-02-13T05:18:38;100230.58;;;2.66;100.00
38267;BME280;24063;51.794;19.578;2023-02-13T05:19:39;100229.77;;;2.65;100.00
38267;BME280;24063;51.794;19.578;2023-02-13T05:20:40;100231.00;;;2.64;100.00
38267;BME280;24063;51.794;19.578;2023-02-13T05:21:41;100233.36;;;2.63;100.00
38267;BME280;24063;51.794;19.578;2023-02-13T05:23:00;100233.43;;;2.60;100.00
38267;BME280;24063;51.794;19.578;2023-02-13T05:24:20;100228.85;;;2.58;100.00
38267;BME280;24063;51.794;19.578;2023-02-13T05:25:21;100231.38;;;2.58;100.00
38267;BME280;24063;51.794;19.578;2023-02-13T05:26:22;100230.68;;;2.57;100.00
38267;BME280;24063;51.794;19.578;2023-02-13T05:27:22;100230.52;;;2.57;100.00
38267;BME280;24063;51.794;19.578;2023-02-13T05:28:23;100228.85;;;2.56;100.00
38267;BME280;24063;51.794;19.578;2023-02-13T05:29:43;100224.52;;;2.57;100.00
38267;BME280;24063;51.794;19.578;2023-02-13T05:30:43;100223.45;;;2.57;100.00
38267;BME280;24063;51.794;19.578;2023-02-13T05:31:45;100221.02;;;2.56;100.00
38267;BME280;24063;51.794;19.578;2023-02-13T05:32:46;100224.23;;;2.56;100.00
38267;BME280;24063;51.794;19.578;2023-02-13T05:33:47;100226.27;;;2.57;100.00
38267;BME280;24063;51.794;19.578;2023-02-13T05:34:47;100220.14;;;2.58;100.00
38267;BME280;24063;51.794;19.578;2023-02-13T05:35:48;100220.95;;;2.57;100.00
38267;BME280;24063;51.794;19.578;2023-02-13T05:36:49;100219.98;;;2.56;100.00
38267;BME280;24063;51.794;19.578;2023-02-13T05:37:50;100221.11;;;2.57;100.00
38267;BME280;24063;51.794;19.578;2023-02-13T05:38:50;100220.38;;;2.57;100.00
38267;BME280;24063;51.794;19.578;2023-02-13T05:39:51;100222.08;;;2.58;100.00
38267;BME280;24063;51.794;19.578;2023-02-13T05:40:51;100218.96;;;2.59;100.00
38267;BME280;24063;51.794;19.578;2023-02-13T05:41:52;100220.65;;;2.60;100.00
38267;BME280;24063;51.794;19.578;2023-02-13T05:42:53;100223.63;;;2.60;100.00
38267;BME280;24063;51.794;19.578;2023-02-13T05:43:54;100222.52;;;2.60;100.00
38267;BME280;24063;51.794;19.578;2023-02-13T05:44:54;100219.09;;;2.61;100.00
38267;BME280;24063;51.794;19.578;2023-02-13T05:46:06;100222.55;;;2.61;100.00
38267;BME280;24063;51.794;19.578;2023-02-13T05:47:07;100222.20;;;2.61;100.00
38267;BME280;24063;51.794;19.578;2023-02-13T05:48:07;100224.48;;;2.62;100.00
38267;BME280;24063;51.794;19.578;2023-02-13T05:49:09;100226.07;;;2.62;100.00
38267;BME280;24063;51.794;19.578;2023-02-13T05:50:10;100226.80;;;2.60;100.00
38267;BME280;24063;51.794;19.578;2023-02-13T05:51:11;100223.19;;;2.61;100.00
38267;BME280;24063;51.794;19.578;2023-02-13T05:52:12;100229.19;;;2.61;100.00
38267;BME280;24063;51.794;19.578;2023-02-13T05:53:12;100224.91;;;2.61;100.00
38267;BME280;24063;51.794;19.578;2023-02-13T05:54:13;100227.61;;;2.62;100.00
38267;BME280;24063;51.794;19.578;2023-02-13T05:55:14;100228.46;;;2.63;100.00
38267;BME280;24063;51.794;19.578;2023-02-13T05:56:15;100225.80;;;2.63;100.00
38267;BME280;24063;51.794;19.578;2023-02-13T05:57:15;100222.66;;;2.64;100.00
38267;BME280;24063;51.794;19.578;2023-02-13T05:58:16;100227.16;;;2.63;100.00
38267;BME280;24063;51.794;19.578;2023-02-13T05:59:17;100223.03;;;2.64;100.00
38267;BME280;24063;51.794;19.578;2023-02-13T06:00:17;100225.60;;;2.63;100.00
38267;BME280;24063;51.794;19.578;2023-02-13T06:01:20;100230.70;;;2.63;100.00
38267;BME280;24063;51.794;19.578;2023-02-13T06:02:21;100227.48;;;2.63;100.00
38267;BME280;24063;51.794;19.578;2023-02-13T06:03:23;100227.22;;;2.61;100.00
38267;BME280;24063;51.794;19.578;2023-02-13T06:04:24;100229.27;;;2.62;100.00
38267;BME280;24063;51.794;19.578;2023-02-13T06:05:24;100230.31;;;2.62;100.00
38267;BME280;24063;51.794;19.578;2023-02-13T06:06:25;100227.02;;;2.63;100.00
38267;BME280;24063;51.794;19.578;2023-02-13T06:07:26;100230.63;;;2.64;100.00
38267;BME280;24063;51.794;19.578;2023-02-13T06:08:26;100227.19;;;2.64;100.00
38267;BME280;24063;51.794;19.578;2023-02-13T06:09:26;100230.00;;;2.67;100.00
38267;BME280;24063;51.794;19.578;2023-02-13T06:10:27;100229.18;;;2.67;100.00
38267;BME280;24063;51.794;19.578;2023-02-13T06:11:28;100230.44;;;2.69;100.00